createdAt,value
2019-06-08T00:02:07.397Z,71.77
2019-06-08T00:04:39.242Z,72.57
2019-06-08T00:07:12.776Z,73.77
2019-06-08T00:09:44.608Z,74.01
2019-06-08T00:12:19.011Z,74.15
2019-06-08T00:14:50.995Z,74.25
2019-06-08T00:17:34.360Z,74.17
2019-06-08T00:19:57.078Z,74.04
2019-06-08T00:22:29.453Z,73.64
2019-06-08T00:25:01.674Z,73.56
2019-06-08T00:27:35.838Z,73.87
2019-06-08T00:30:07.601Z,73.55
2019-06-08T00:32:39.695Z,73.16
2019-06-08T00:35:11.537Z,72.54
2019-06-08T00:37:43.823Z,71.79
2019-06-08T00:40:16.852Z,72.06
2019-06-08T00:42:48.775Z,71.87
2019-06-08T00:45:21.678Z,71.19
2019-06-08T00:47:53.838Z,71.41
2019-06-08T00:50:26.211Z,71.37
2019-06-08T00:52:58.185Z,71.32
2019-06-08T00:55:30.456Z,71.16
2019-06-08T00:58:02.834Z,71.52
2019-06-08T01:00:34.913Z,71.64
2019-06-08T01:03:07.071Z,71.97
2019-06-08T01:05:39.133Z,72.39
2019-06-08T01:08:11.565Z,73.05
2019-06-08T01:10:43.577Z,73.62
2019-06-08T01:13:15.854Z,73.81
2019-06-08T01:15:47.925Z,73.86
2019-06-08T01:18:21.142Z,72.78
2019-06-08T01:20:54.209Z,72.32
2019-06-08T01:23:27.807Z,72.51
2019-06-08T01:25:59.988Z,71.89
2019-06-08T01:28:33.386Z,72.15
2019-06-08T01:31:05.151Z,71.00
2019-06-08T01:33:37.215Z,71.78
2019-06-08T01:36:09.131Z,72.16
2019-06-08T01:38:41.260Z,71.34
2019-06-08T01:41:13.216Z,71.84
2019-06-08T01:43:46.205Z,71.85
2019-06-08T01:46:18.170Z,72.41
2019-06-08T01:48:50.557Z,72.33
2019-06-08T01:51:22.820Z,73.53
2019-06-08T01:53:55.094Z,74.13
2019-06-08T01:56:27.472Z,74.11
2019-06-08T01:59:00.881Z,73.85
2019-06-08T02:01:34.156Z,73.56
2019-06-08T02:04:06.338Z,73.04
2019-06-08T02:06:38.430Z,72.38
2019-06-08T02:09:10.679Z,72.61
2019-06-08T02:11:42.800Z,72.31
2019-06-08T02:14:15.082Z,72.23
2019-06-08T02:16:48.425Z,72.01
2019-06-08T02:19:20.289Z,71.87
2019-06-08T02:21:52.457Z,71.54
2019-06-08T02:24:24.782Z,71.74
2019-06-08T02:26:57.109Z,71.31
2019-06-08T02:29:33.722Z,70.96
2019-06-08T02:32:05.876Z,71.11
2019-06-08T02:34:40.498Z,71.54
2019-06-08T02:37:12.767Z,71.94
2019-06-08T02:39:45.138Z,72.31
2019-06-08T02:42:17.517Z,72.64
2019-06-08T02:44:49.484Z,72.59
2019-06-08T02:47:21.555Z,72.57
2019-06-08T02:49:53.519Z,72.71
2019-06-08T02:52:25.689Z,73.26
2019-06-08T02:54:57.687Z,72.19
2019-06-08T02:57:31.016Z,71.42
2019-06-08T03:00:03.252Z,71.44
2019-06-08T03:02:36.929Z,71.44
2019-06-08T03:05:09.629Z,71.67
2019-06-08T03:07:43.137Z,71.42
2019-06-08T03:10:14.997Z,70.99
2019-06-08T03:12:47.265Z,70.74
2019-06-08T03:15:22.919Z,69.95
2019-06-08T03:17:55.091Z,69.38
2019-06-08T03:20:27.159Z,68.16
2019-06-08T03:23:00.558Z,67.22
2019-06-08T03:25:42.076Z,66.26
2019-06-08T03:28:07.873Z,65.94
2019-06-08T03:30:51.925Z,65.89
2019-06-08T03:33:13.351Z,64.13
2019-06-08T03:35:55.375Z,63.46
2019-06-08T03:38:19.529Z,62.95
2019-06-08T03:40:51.604Z,63.24
2019-06-08T03:43:23.868Z,62.19
2019-06-08T03:45:56.348Z,60.87
2019-06-08T03:48:28.518Z,60.05
2019-06-08T03:51:00.686Z,59.72
2019-06-08T03:53:32.860Z,58.12
2019-06-08T03:56:05.137Z,58.62
2019-06-08T03:58:38.515Z,58.51
2019-06-08T04:01:11.229Z,58.49
2019-06-08T04:03:44.037Z,57.99
2019-06-08T04:06:16.490Z,57.21
2019-06-08T04:08:49.958Z,56.99
2019-06-08T04:11:22.064Z,57.17
2019-06-08T04:13:54.341Z,56.96
2019-06-08T04:16:27.629Z,57.32
2019-06-08T04:18:59.800Z,56.81
2019-06-08T04:21:31.972Z,57.33
2019-06-08T04:24:04.384Z,57.16
2019-06-08T04:26:38.449Z,57.32
2019-06-08T04:29:10.636Z,56.88
2019-06-08T04:31:43.791Z,56.89
2019-06-08T04:34:16.004Z,56.78
2019-06-08T04:36:50.200Z,56.32
2019-06-08T04:39:21.574Z,56.78
2019-06-08T04:41:53.645Z,56.84
2019-06-08T04:44:26.015Z,56.35
2019-06-08T04:46:58.390Z,56.22
2019-06-08T04:49:30.363Z,56.57
2019-06-08T04:52:02.743Z,56.64
2019-06-08T04:54:34.703Z,56.82
2019-06-08T04:57:06.979Z,56.64
2019-06-08T04:59:39.681Z,56.33
2019-06-08T05:02:12.654Z,55.72
2019-06-08T05:04:45.349Z,55.75
2019-06-08T05:07:20.885Z,55.49
2019-06-08T05:09:52.953Z,55.49
2019-06-08T05:12:25.446Z,55.79
2019-06-08T05:14:57.397Z,55.38
2019-06-08T05:17:29.779Z,55.39
2019-06-08T05:20:01.745Z,55.81
2019-06-08T05:22:33.704Z,54.93
2019-06-08T05:25:07.207Z,54.69
2019-06-08T05:27:41.271Z,54.47
2019-06-08T05:30:13.599Z,53.99
2019-06-08T05:32:45.976Z,53.52
2019-06-08T05:35:18.349Z,53.63
2019-06-08T05:37:50.323Z,52.64
2019-06-08T05:40:23.715Z,52.91
2019-06-08T05:42:55.892Z,52.09
2019-06-08T05:45:28.317Z,52.65
2019-06-08T05:48:00.535Z,51.32
2019-06-08T05:50:32.811Z,50.23
2019-06-08T05:53:04.876Z,48.74
2019-06-08T05:55:36.746Z,48.97
2019-06-08T05:58:08.821Z,48.17
2019-06-08T06:00:42.138Z,48.12
2019-06-08T06:03:14.079Z,47.96
2019-06-08T06:05:46.584Z,47.56
2019-06-08T06:08:19.528Z,48.00
2019-06-08T06:10:51.514Z,47.15
2019-06-08T06:13:24.196Z,47.15
2019-06-08T06:15:56.064Z,46.43
2019-06-08T06:18:28.234Z,46.43
2019-06-08T06:21:10.289Z,45.67
2019-06-08T06:23:33.901Z,44.86
2019-06-08T06:26:05.883Z,45.01
2019-06-08T06:28:37.738Z,44.52
2019-06-08T06:31:09.911Z,44.19
2019-06-08T06:33:42.092Z,44.07
2019-06-08T06:36:14.464Z,43.64
2019-06-08T06:38:47.908Z,42.99
2019-06-08T06:41:20.213Z,43.56
2019-06-08T06:43:52.359Z,42.74
2019-06-08T06:46:24.446Z,41.80
2019-06-08T06:48:56.612Z,42.68
2019-06-08T06:51:28.541Z,41.66
2019-06-08T06:54:01.667Z,41.27
2019-06-08T06:56:33.732Z,42.01
2019-06-08T06:59:06.001Z,41.65
2019-06-08T07:01:39.591Z,41.96
2019-06-08T07:04:13.572Z,41.84
2019-06-08T07:06:46.236Z,40.54
2019-06-08T07:09:18.504Z,40.68
2019-06-08T07:11:53.088Z,39.25
2019-06-08T07:14:26.683Z,39.59
2019-06-08T07:16:58.541Z,40.05
2019-06-08T07:19:30.605Z,40.11
2019-06-08T07:22:03.271Z,40.14
2019-06-08T07:24:35.663Z,39.79
2019-06-08T07:27:07.823Z,40.16
2019-06-08T07:29:42.759Z,40.04
2019-06-08T07:32:15.847Z,39.21
2019-06-08T07:34:49.956Z,38.88
2019-06-08T07:37:21.625Z,39.26
2019-06-08T07:39:53.754Z,38.65
2019-06-08T07:42:25.760Z,39.20
2019-06-08T07:45:00.229Z,39.26
2019-06-08T07:47:32.149Z,38.98
2019-06-08T07:50:05.077Z,39.17
2019-06-08T07:52:36.898Z,38.18
2019-06-08T07:55:09.392Z,38.55
2019-06-08T07:57:41.237Z,38.07
2019-06-08T08:00:13.718Z,38.18
2019-06-08T08:02:45.885Z,37.31
2019-06-08T08:05:17.648Z,37.93
2019-06-08T08:07:50.231Z,36.98
2019-06-08T08:10:22.202Z,37.01
2019-06-08T08:12:54.776Z,37.31
2019-06-08T08:15:26.740Z,36.34
2019-06-08T08:17:59.606Z,36.58
2019-06-08T08:20:31.692Z,36.15
2019-06-08T08:23:06.200Z,36.25
2019-06-08T08:25:37.956Z,35.66
2019-06-08T08:28:09.936Z,35.44
2019-06-08T08:30:42.222Z,35.39
2019-06-08T08:33:14.093Z,35.37
2019-06-08T08:35:48.208Z,34.41
2019-06-08T08:38:19.962Z,33.72
2019-06-08T08:40:53.435Z,33.72
2019-06-08T08:43:27.852Z,33.80
2019-06-08T08:46:01.849Z,33.50
2019-06-08T08:48:32.743Z,34.47
2019-06-08T08:51:05.122Z,34.35
2019-06-08T08:53:37.515Z,34.81
2019-06-08T08:56:09.358Z,33.88
2019-06-08T08:58:41.463Z,33.77
2019-06-08T09:01:13.284Z,34.43
2019-06-08T09:03:45.254Z,33.70
2019-06-08T09:06:18.129Z,33.80
2019-06-08T09:08:52.036Z,33.65
2019-06-08T09:11:24.834Z,33.91
2019-06-08T09:14:02.498Z,33.65
2019-06-08T09:16:31.016Z,33.70
2019-06-08T09:19:04.444Z,33.18
2019-06-08T09:21:38.396Z,33.38
2019-06-08T09:24:10.484Z,33.56
2019-06-08T09:26:42.352Z,33.07
2019-06-08T09:29:14.829Z,32.81
2019-06-08T09:31:48.876Z,32.45
2019-06-08T09:34:20.568Z,32.62
2019-06-08T09:36:54.062Z,33.39
2019-06-08T09:39:28.502Z,33.03
2019-06-08T09:42:02.974Z,32.92
2019-06-08T09:44:34.299Z,32.66
2019-06-08T09:47:12.149Z,32.25
2019-06-08T09:49:40.385Z,31.70
2019-06-08T09:52:12.666Z,31.68
2019-06-08T09:54:44.639Z,31.37
2019-06-08T09:57:18.852Z,31.55
2019-06-08T09:59:50.515Z,31.54
2019-06-08T10:02:22.573Z,31.79
2019-06-08T10:04:56.074Z,31.11
2019-06-08T10:07:31.363Z,31.40
2019-06-08T10:10:03.142Z,31.70
2019-06-08T10:12:37.729Z,32.21
2019-06-08T10:15:09.066Z,31.03
2019-06-08T10:17:40.825Z,30.51
2019-06-08T10:20:12.983Z,30.10
2019-06-08T10:22:44.955Z,29.69
2019-06-08T10:25:17.123Z,29.67
2019-06-08T10:27:49.205Z,29.64
2019-06-08T10:30:21.266Z,30.11
2019-06-08T10:32:53.673Z,29.77
2019-06-08T10:35:28.220Z,30.09
2019-06-08T10:38:02.799Z,30.05
2019-06-08T10:40:35.258Z,29.54
2019-06-08T10:43:09.894Z,28.88
2019-06-08T10:45:41.029Z,29.06
2019-06-08T10:48:13.205Z,28.10
2019-06-08T10:50:47.191Z,27.51
2019-06-08T10:53:18.873Z,27.23
2019-06-08T10:55:51.252Z,26.71
2019-06-08T10:58:23.717Z,26.22
2019-06-08T11:00:57.851Z,26.44
2019-06-08T11:03:30.684Z,26.18
2019-06-08T11:06:07.517Z,26.11
2019-06-08T11:08:39.097Z,25.94
2019-06-08T11:11:11.955Z,25.14
2019-06-08T11:13:50.092Z,24.44
2019-06-08T11:16:20.897Z,23.42
2019-06-08T11:18:53.256Z,22.88
2019-06-08T11:21:25.541Z,22.12
2019-06-08T11:24:10.388Z,21.82
2019-06-08T11:26:31.203Z,21.15
2019-06-08T11:29:04.941Z,21.19
2019-06-08T11:31:39.291Z,21.09
2019-06-08T11:34:11.098Z,21.18
2019-06-08T11:36:43.259Z,21.20
2019-06-08T11:39:15.431Z,20.73
2019-06-08T11:41:48.488Z,20.23
2019-06-08T11:44:20.485Z,20.30
2019-06-08T11:46:52.587Z,20.28
2019-06-08T11:49:24.403Z,19.44
2019-06-08T11:51:58.350Z,19.21
2019-06-08T11:54:37.084Z,19.28
2019-06-08T11:57:04.907Z,19.76
2019-06-08T11:59:37.513Z,19.31
2019-06-08T12:02:12.682Z,18.86
2019-06-08T12:04:43.571Z,18.62
2019-06-08T12:07:15.457Z,18.21
2019-06-08T12:09:49.935Z,18.48
2019-06-08T12:12:21.473Z,18.68
2019-06-08T12:14:53.484Z,18.66
2019-06-08T12:17:27.635Z,18.00
2019-06-08T12:19:59.052Z,18.00
2019-06-08T12:22:31.119Z,18.00
2019-06-08T12:25:05.927Z,17.96
2019-06-08T12:27:40.244Z,18.49
2019-06-08T12:30:21.683Z,17.65
2019-06-08T12:32:45.018Z,17.38
2019-06-08T12:35:18.130Z,17.49
2019-06-08T12:37:51.576Z,17.60
2019-06-08T12:40:23.576Z,17.89
2019-06-08T12:42:59.494Z,17.79
2019-06-08T12:45:29.357Z,17.55
2019-06-08T12:48:02.443Z,17.31
2019-06-08T12:50:34.518Z,17.23
2019-06-08T12:53:12.394Z,16.93
2019-06-08T12:55:39.370Z,16.93
2019-06-08T12:58:12.608Z,17.80
2019-06-08T13:00:44.154Z,17.63
2019-06-08T13:03:16.702Z,17.98
2019-06-08T13:05:48.663Z,17.76
2019-06-08T13:08:21.835Z,17.96
2019-06-08T13:10:54.025Z,18.01
2019-06-08T13:13:28.101Z,18.16
2019-06-08T13:15:59.906Z,17.93
2019-06-08T13:18:31.669Z,18.55
2019-06-08T13:21:16.664Z,19.02
2019-06-08T13:23:38.335Z,18.94
2019-06-08T13:26:11.503Z,19.01
2019-06-08T13:28:43.932Z,19.62
2019-06-08T13:31:19.322Z,19.84
2019-06-08T13:33:49.190Z,19.91
2019-06-08T13:36:25.850Z,20.30
2019-06-08T13:38:54.461Z,20.41
2019-06-08T13:41:29.655Z,20.72
2019-06-08T13:44:00.132Z,21.01
2019-06-08T13:46:32.004Z,21.31
2019-06-08T13:49:04.164Z,21.55
2019-06-08T13:51:38.227Z,20.76
2019-06-08T13:54:09.535Z,20.33
2019-06-08T13:56:41.291Z,19.78
2019-06-08T13:59:13.613Z,18.59
2019-06-08T14:01:47.777Z,18.22
2019-06-08T14:04:21.052Z,18.09
2019-06-08T14:06:53.687Z,17.33
2019-06-08T14:09:28.494Z,16.74
2019-06-08T14:11:59.936Z,16.59
2019-06-08T14:14:33.783Z,16.70
2019-06-08T14:17:04.789Z,16.61
2019-06-08T14:19:38.534Z,17.37
2019-06-08T14:22:10.779Z,16.85
2019-06-08T14:24:42.823Z,16.85
2019-06-08T14:27:14.885Z,18.53
2019-06-08T14:29:51.370Z,18.53
2019-06-08T14:32:23.887Z,18.71
2019-06-08T14:34:58.182Z,19.89
2019-06-08T14:37:30.532Z,19.54
2019-06-08T14:40:02.493Z,19.58
2019-06-08T14:42:34.560Z,19.76
2019-06-08T14:45:10.733Z,20.00
2019-06-08T14:47:41.970Z,21.04
2019-06-08T14:50:14.547Z,23.20
2019-06-08T14:52:47.948Z,24.86
2019-06-08T14:55:22.229Z,25.90
2019-06-08T14:57:55.146Z,26.13
2019-06-08T15:00:27.821Z,26.04
2019-06-08T15:02:59.997Z,26.40
2019-06-08T15:05:32.678Z,26.88
2019-06-08T15:08:04.727Z,27.46
2019-06-08T15:10:38.532Z,28.03
2019-06-08T15:13:10.726Z,29.53
2019-06-08T15:15:42.586Z,30.69
2019-06-08T15:18:14.655Z,31.07
2019-06-08T15:20:48.113Z,30.81
2019-06-08T15:23:22.890Z,30.45
2019-06-08T15:25:53.619Z,29.10
2019-06-08T15:28:29.281Z,28.45
2019-06-08T15:31:00.064Z,27.87
2019-06-08T15:33:33.679Z,27.30
2019-06-08T15:36:05.671Z,27.05
2019-06-08T15:38:38.189Z,26.69
2019-06-08T15:41:10.318Z,26.40
2019-06-08T15:43:42.218Z,26.44
2019-06-08T15:46:14.353Z,26.67
2019-06-08T15:48:48.496Z,26.74
2019-06-08T15:51:19.914Z,26.82
2019-06-08T15:53:51.980Z,27.26
2019-06-08T15:56:40.490Z,27.71
2019-06-08T15:58:58.806Z,27.72
2019-06-08T16:01:31.866Z,27.50
2019-06-08T16:04:04.449Z,27.53
2019-06-08T16:06:36.423Z,28.34
2019-06-08T16:09:09.190Z,29.86
2019-06-08T16:11:41.361Z,31.24
2019-06-08T16:14:13.836Z,32.29
2019-06-08T16:16:45.497Z,33.72
2019-06-08T16:19:17.769Z,34.56
2019-06-08T16:21:50.345Z,35.54
2019-06-08T16:24:22.308Z,36.19
2019-06-08T16:26:54.574Z,35.78
2019-06-08T16:29:26.898Z,35.87
2019-06-08T16:31:58.910Z,36.92
2019-06-08T16:34:31.412Z,37.85
2019-06-08T16:37:03.475Z,38.61
2019-06-08T16:39:35.728Z,39.30
2019-06-08T16:42:07.803Z,40.52
2019-06-08T16:44:39.861Z,40.98
2019-06-08T16:47:11.943Z,41.02
2019-06-08T16:49:43.896Z,40.70
2019-06-08T16:52:17.393Z,40.12
2019-06-08T16:54:49.363Z,39.80
2019-06-08T16:57:21.326Z,39.65
2019-06-08T16:59:53.497Z,39.66
2019-06-08T17:02:25.567Z,39.95
2019-06-08T17:04:57.937Z,40.11
2019-06-08T17:07:29.900Z,41.12
2019-06-08T17:10:02.281Z,42.12
2019-06-08T17:12:37.008Z,42.93
2019-06-08T17:15:08.276Z,43.53
2019-06-08T17:17:40.536Z,43.32
2019-06-08T17:20:12.593Z,43.40
2019-06-08T17:22:44.557Z,43.62
2019-06-08T17:25:16.629Z,43.43
2019-06-08T17:27:48.694Z,43.61
2019-06-08T17:30:20.665Z,43.84
2019-06-08T17:32:53.248Z,43.87
2019-06-08T17:35:25.204Z,43.87
2019-06-08T17:37:57.067Z,43.93
2019-06-08T17:40:28.833Z,44.29
2019-06-08T17:43:01.099Z,44.43
2019-06-08T17:45:34.214Z,44.58
2019-06-08T17:48:06.262Z,45.03
2019-06-08T17:50:38.689Z,45.34
2019-06-08T17:53:10.613Z,45.95
2019-06-08T17:55:43.668Z,46.53
2019-06-08T17:58:15.870Z,47.05
2019-06-08T18:00:47.941Z,47.39
2019-06-08T18:03:20.111Z,47.64
2019-06-08T18:05:52.179Z,48.10
2019-06-08T18:08:25.971Z,47.88
2019-06-08T18:10:58.157Z,48.36
2019-06-08T18:13:29.919Z,48.14
2019-06-08T18:16:01.994Z,48.33
2019-06-08T18:18:34.209Z,48.58
2019-06-08T18:21:08.138Z,48.64
2019-06-08T18:23:41.842Z,48.63
2019-06-08T18:26:13.646Z,48.86
2019-06-08T18:28:48.342Z,49.67
2019-06-08T18:31:19.419Z,50.23
2019-06-08T18:33:52.207Z,50.63
2019-06-08T18:36:27.525Z,51.05
2019-06-08T18:38:59.109Z,51.05
2019-06-08T18:41:31.175Z,51.05
2019-06-08T18:44:02.942Z,51.20
2019-06-08T18:46:38.024Z,51.31
2019-06-08T18:49:10.970Z,51.73
2019-06-08T18:51:43.912Z,52.21
2019-06-08T18:54:18.592Z,52.89
2019-06-08T18:56:49.730Z,53.00
2019-06-08T18:59:21.902Z,53.13
2019-06-08T19:01:53.770Z,53.17
2019-06-08T19:04:27.676Z,53.41
2019-06-08T19:07:01.377Z,53.83
2019-06-08T19:09:34.281Z,54.86
2019-06-08T19:12:06.420Z,55.22
2019-06-08T19:14:39.279Z,55.81
2019-06-08T19:17:12.426Z,56.15
2019-06-08T19:19:47.533Z,55.86
2019-06-08T19:22:18.999Z,56.16
2019-06-08T19:24:50.948Z,56.20
2019-06-08T19:27:23.874Z,56.37
2019-06-08T19:29:57.775Z,56.10
2019-06-08T19:32:29.265Z,56.15
2019-06-08T19:35:01.038Z,56.39
2019-06-08T19:37:32.938Z,56.91
2019-06-08T19:40:07.428Z,57.50
2019-06-08T19:42:50.460Z,57.41
2019-06-08T19:45:12.678Z,56.54
2019-06-08T19:47:45.045Z,56.65
2019-06-08T19:50:17.238Z,55.67
2019-06-08T19:52:52.214Z,55.26
2019-06-08T19:55:23.087Z,55.09
2019-06-08T19:57:57.006Z,54.57
2019-06-08T20:00:29.067Z,54.62
2019-06-08T20:03:01.343Z,54.78
2019-06-08T20:05:33.407Z,54.84
2019-06-08T20:08:07.965Z,55.38
2019-06-08T20:10:41.037Z,55.84
2019-06-08T20:13:13.045Z,56.46
2019-06-08T20:15:50.439Z,56.89
2019-06-08T20:18:18.677Z,57.53
2019-06-08T20:20:53.118Z,57.66
2019-06-08T20:23:24.449Z,57.98
2019-06-08T20:25:57.357Z,58.01
2019-06-08T20:28:30.034Z,58.38
2019-06-08T20:31:02.298Z,57.98
2019-06-08T20:33:37.682Z,58.06
2019-06-08T20:36:08.892Z,58.24
2019-06-08T20:38:43.764Z,57.78
2019-06-08T20:41:15.103Z,57.81
2019-06-08T20:43:50.333Z,57.41
2019-06-08T20:46:20.536Z,58.54
2019-06-08T20:48:53.267Z,58.47
2019-06-08T20:51:27.713Z,58.26
2019-06-08T20:53:58.925Z,58.51
2019-06-08T20:56:30.835Z,58.10
2019-06-08T20:59:02.900Z,58.39
2019-06-08T21:01:34.978Z,58.70
2019-06-08T21:04:07.697Z,59.08
2019-06-08T21:06:41.059Z,59.92
2019-06-08T21:09:12.809Z,59.93
2019-06-08T21:11:49.359Z,60.38
2019-06-08T21:14:19.798Z,60.52
2019-06-08T21:16:53.310Z,60.19
2019-06-08T21:19:28.100Z,60.17
2019-06-08T21:22:00.088Z,60.41
2019-06-08T21:24:32.252Z,60.40
2019-06-08T21:27:04.430Z,60.24
2019-06-08T21:29:47.647Z,60.94
2019-06-08T21:32:10.370Z,61.13
2019-06-08T21:34:42.687Z,61.33
2019-06-08T21:37:14.959Z,61.24
2019-06-08T21:39:53.018Z,61.52
2019-06-08T21:42:23.291Z,61.83
2019-06-08T21:44:59.389Z,61.64
2019-06-08T21:47:29.751Z,62.23
2019-06-08T21:50:02.231Z,61.85
2019-06-08T21:52:34.678Z,61.95
2019-06-08T21:55:07.482Z,61.73
2019-06-08T21:57:39.348Z,62.46
2019-06-08T22:00:35.884Z,62.10
2019-06-08T22:02:47.974Z,64.21
2019-06-08T22:05:21.084Z,64.09
2019-06-08T22:07:54.056Z,66.20
2019-06-08T22:10:26.053Z,66.29
2019-06-08T22:13:00.939Z,65.53
2019-06-08T22:15:32.320Z,65.10
2019-06-08T22:18:04.542Z,64.42
2019-06-08T22:20:38.244Z,64.56
2019-06-08T22:23:10.377Z,64.37
2019-06-08T22:25:42.756Z,64.23
2019-06-08T22:28:14.827Z,64.93
2019-06-08T22:30:48.233Z,67.71
2019-06-08T22:33:20.184Z,68.12
2019-06-08T22:35:53.133Z,68.64
2019-06-08T22:38:25.959Z,68.22
2019-06-08T22:41:00.295Z,67.71
2019-06-08T22:43:32.551Z,65.93
2019-06-08T22:46:04.419Z,64.16
2019-06-08T22:48:38.365Z,63.63
2019-06-08T22:51:10.093Z,63.63
2019-06-08T22:53:42.055Z,63.52
2019-06-08T22:56:14.329Z,63.73
2019-06-08T22:58:47.928Z,64.51
2019-06-08T23:01:19.863Z,65.00
2019-06-08T23:03:51.561Z,66.69
2019-06-08T23:06:24.042Z,64.98
2019-06-08T23:08:59.801Z,65.19
2019-06-08T23:11:30.330Z,65.80
2019-06-08T23:14:04.396Z,63.68
2019-06-08T23:16:36.311Z,61.52
2019-06-08T23:19:08.586Z,61.14
2019-06-08T23:21:40.652Z,62.12
2019-06-08T23:24:12.520Z,63.63
2019-06-08T23:26:44.690Z,63.03
2019-06-08T23:29:17.880Z,63.42
2019-06-08T23:31:49.847Z,61.92
2019-06-08T23:34:23.400Z,61.41
2019-06-08T23:36:59.979Z,61.43
2019-06-08T23:39:29.232Z,62.86
2019-06-08T23:42:01.690Z,62.86
2019-06-08T23:44:33.771Z,60.88
2019-06-08T23:47:06.080Z,61.24
2019-06-08T23:49:38.316Z,61.26
2019-06-08T23:52:11.751Z,60.82
2019-06-08T23:54:43.685Z,61.58
2019-06-08T23:57:17.902Z,63.28
2019-06-08T23:59:49.357Z,64.20
